sensor_id;sensor_type;location;lat;lon;timestamp;P1;durP1;ratioP1;P2;durP2;ratioP2
67090;SDS011;54007;55.818;49.058;2023-01-23T09:40:34;54.55;;;19.73;;
67090;SDS011;54007;55.818;49.058;2023-01-23T09:45:34;59.13;;;19.27;;
67090;SDS011;54007;55.818;49.058;2023-01-23T09:48:11;61.65;;;19.02;;
67090;SDS011;54007;55.818;49.058;2023-01-23T09:50:30;61.92;;;20.48;;
67090;SDS011;54007;55.818;49.058;2023-01-23T09:52:57;64.57;;;21.90;;
67090;SDS011;54007;55.818;49.058;2023-01-23T09:55:23;67.97;;;21.68;;
67090;SDS011;54007;55.818;49.058;2023-01-23T10:00:23;67.78;;;22.02;;
67090;SDS011;54007;55.818;49.058;2023-01-23T10:02:47;59.95;;;21.25;;
67090;SDS011;54007;55.818;49.058;2023-01-23T10:05:13;65.87;;;21.45;;
67090;SDS011;54007;55.818;49.058;2023-01-23T10:07:43;65.62;;;21.05;;
67090;SDS011;54007;55.818;49.058;2023-01-23T10:13:10;69.83;;;21.20;;
67090;SDS011;54007;55.818;49.058;2023-01-23T10:15:19;69.58;;;20.17;;
67090;SDS011;54007;55.818;49.058;2023-01-23T10:17:47;61.37;;;20.35;;
67090;SDS011;54007;55.818;49.058;2023-01-23T10:20:21;69.10;;;20.10;;
67090;SDS011;54007;55.818;49.058;2023-01-23T10:25:20;64.82;;;20.85;;
67090;SDS011;54007;55.818;49.058;2023-01-23T10:27:45;65.80;;;21.97;;
67090;SDS011;54007;55.818;49.058;2023-01-23T10:32:43;60.30;;;19.57;;
67090;SDS011;54007;55.818;49.058;2023-01-23T10:35:08;72.07;;;21.63;;
67090;SDS011;54007;55.818;49.058;2023-01-23T10:40:19;86.12;;;23.60;;
67090;SDS011;54007;55.818;49.058;2023-01-23T10:42:29;66.92;;;22.00;;
67090;SDS011;54007;55.818;49.058;2023-01-23T10:44:55;61.13;;;19.70;;
67090;SDS011;54007;55.818;49.058;2023-01-23T10:47:33;60.83;;;19.77;;
67090;SDS011;54007;55.818;49.058;2023-01-23T10:49:59;64.00;;;18.77;;
67090;SDS011;54007;55.818;49.058;2023-01-23T10:52:38;55.98;;;18.62;;
67090;SDS011;54007;55.818;49.058;2023-01-23T10:55:19;51.70;;;15.40;;
67090;SDS011;54007;55.818;49.058;2023-01-23T10:57:37;39.33;;;14.10;;
67090;SDS011;54007;55.818;49.058;2023-01-23T11:02:31;32.90;;;10.65;;
67090;SDS011;54007;55.818;49.058;2023-01-23T11:04:56;34.03;;;11.33;;
67090;SDS011;54007;55.818;49.058;2023-01-23T11:07:23;29.92;;;10.35;;
67090;SDS011;54007;55.818;49.058;2023-01-23T11:12:15;29.40;;;9.90;;
67090;SDS011;54007;55.818;49.058;2023-01-23T11:14:40;30.10;;;10.48;;
67090;SDS011;54007;55.818;49.058;2023-01-23T11:17:31;32.70;;;9.53;;
67090;SDS011;54007;55.818;49.058;2023-01-23T11:19:31;20.77;;;8.38;;
67090;SDS011;54007;55.818;49.058;2023-01-23T11:21:58;27.82;;;9.35;;
67090;SDS011;54007;55.818;49.058;2023-01-23T11:27:31;26.30;;;9.45;;
67090;SDS011;54007;55.818;49.058;2023-01-23T11:29:22;32.98;;;10.25;;
67090;SDS011;54007;55.818;49.058;2023-01-23T11:31:48;31.67;;;11.27;;
67090;SDS011;54007;55.818;49.058;2023-01-23T11:34:13;27.73;;;9.93;;
67090;SDS011;54007;55.818;49.058;2023-01-23T11:39:20;26.80;;;10.57;;
67090;SDS011;54007;55.818;49.058;2023-01-23T11:41:39;37.53;;;11.50;;
67090;SDS011;54007;55.818;49.058;2023-01-23T11:44:12;36.58;;;11.45;;
67090;SDS011;54007;55.818;49.058;2023-01-23T11:47:18;35.33;;;11.23;;
67090;SDS011;54007;55.818;49.058;2023-01-23T11:51:51;33.95;;;12.98;;
67090;SDS011;54007;55.818;49.058;2023-01-23T11:57:00;37.53;;;12.53;;
67090;SDS011;54007;55.818;49.058;2023-01-23T12:09:37;38.10;;;13.83;;
67090;SDS011;54007;55.818;49.058;2023-01-23T12:12:08;46.28;;;15.78;;
67090;SDS011;54007;55.818;49.058;2023-01-23T12:22:04;47.17;;;15.55;;
67090;SDS011;54007;55.818;49.058;2023-01-23T12:27:19;42.10;;;14.28;;
67090;SDS011;54007;55.818;49.058;2023-01-23T12:34:47;41.42;;;11.97;;
67090;SDS011;54007;55.818;49.058;2023-01-23T12:37:19;39.50;;;13.25;;
67090;SDS011;54007;55.818;49.058;2023-01-23T12:39:45;89.90;;;32.73;;
67090;SDS011;54007;55.818;49.058;2023-01-23T12:42:07;36.95;;;12.65;;
67090;SDS011;54007;55.818;49.058;2023-01-23T12:44:34;43.48;;;13.72;;
67090;SDS011;54007;55.818;49.058;2023-01-23T12:47:03;44.30;;;14.50;;
67090;SDS011;54007;55.818;49.058;2023-01-23T12:49:29;41.55;;;14.18;;
67090;SDS011;54007;55.818;49.058;2023-01-23T12:57:03;46.53;;;13.25;;
67090;SDS011;54007;55.818;49.058;2023-01-23T13:01:59;43.03;;;14.70;;
67090;SDS011;54007;55.818;49.058;2023-01-23T13:07:04;51.83;;;17.73;;
67090;SDS011;54007;55.818;49.058;2023-01-23T13:09:28;49.23;;;16.10;;
67090;SDS011;54007;55.818;49.058;2023-01-23T13:14:22;51.40;;;17.87;;
67090;SDS011;54007;55.818;49.058;2023-01-23T13:16:50;51.07;;;16.53;;
67090;SDS011;54007;55.818;49.058;2023-01-23T13:19:38;55.67;;;17.75;;
67090;SDS011;54007;55.818;49.058;2023-01-23T13:24:46;47.63;;;17.67;;
67090;SDS011;54007;55.818;49.058;2023-01-23T13:32:47;51.43;;;18.03;;
67090;SDS011;54007;55.818;49.058;2023-01-23T13:36:20;60.95;;;18.62;;
67090;SDS011;54007;55.818;49.058;2023-01-23T13:37:54;58.05;;;18.60;;
67090;SDS011;54007;55.818;49.058;2023-01-23T13:40:20;56.53;;;19.70;;
67090;SDS011;54007;55.818;49.058;2023-01-23T13:42:45;51.88;;;17.30;;
67090;SDS011;54007;55.818;49.058;2023-01-23T13:47:46;44.17;;;13.87;;
67090;SDS011;54007;55.818;49.058;2023-01-23T13:50:29;43.30;;;13.93;;
67090;SDS011;54007;55.818;49.058;2023-01-23T13:52:58;43.13;;;14.25;;
67090;SDS011;54007;55.818;49.058;2023-01-23T13:55:42;46.80;;;14.13;;
67090;SDS011;54007;55.818;49.058;2023-01-23T13:58:27;43.13;;;14.28;;
67090;SDS011;54007;55.818;49.058;2023-01-23T14:03:57;45.88;;;13.80;;
67090;SDS011;54007;55.818;49.058;2023-01-23T14:06:39;44.95;;;13.70;;
67090;SDS011;54007;55.818;49.058;2023-01-23T14:09:24;40.03;;;13.85;;
67090;SDS011;54007;55.818;49.058;2023-01-23T14:11:55;35.70;;;13.05;;
67090;SDS011;54007;55.818;49.058;2023-01-23T14:14:14;43.25;;;14.65;;
67090;SDS011;54007;55.818;49.058;2023-01-23T14:16:58;43.45;;;14.93;;
67090;SDS011;54007;55.818;49.058;2023-01-23T14:19:28;49.97;;;16.77;;
67090;SDS011;54007;55.818;49.058;2023-01-23T14:21:54;52.43;;;17.40;;
67090;SDS011;54007;55.818;49.058;2023-01-23T14:24:27;48.05;;;16.17;;
67090;SDS011;54007;55.818;49.058;2023-01-23T14:26:53;39.20;;;14.07;;
67090;SDS011;54007;55.818;49.058;2023-01-23T14:29:21;51.45;;;14.73;;
67090;SDS011;54007;55.818;49.058;2023-01-23T14:31:46;51.63;;;16.37;;
67090;SDS011;54007;55.818;49.058;2023-01-23T14:34:15;52.30;;;16.27;;
67090;SDS011;54007;55.818;49.058;2023-01-23T14:36:44;61.80;;;18.17;;
67090;SDS011;54007;55.818;49.058;2023-01-23T14:39:06;56.23;;;17.75;;
67090;SDS011;54007;55.818;49.058;2023-01-23T14:41:33;69.67;;;20.47;;
67090;SDS011;54007;55.818;49.058;2023-01-23T14:43:58;71.05;;;20.55;;
67090;SDS011;54007;55.818;49.058;2023-01-23T14:46:31;46.70;;;14.63;;
67090;SDS011;54007;55.818;49.058;2023-01-23T14:48:53;41.48;;;13.98;;
67090;SDS011;54007;55.818;49.058;2023-01-23T14:51:25;39.55;;;13.28;;
67090;SDS011;54007;55.818;49.058;2023-01-23T14:53:58;35.53;;;12.60;;
67090;SDS011;54007;55.818;49.058;2023-01-23T14:56:33;33.65;;;11.30;;
67090;SDS011;54007;55.818;49.058;2023-01-23T14:58:55;36.60;;;11.88;;
67090;SDS011;54007;55.818;49.058;2023-01-23T15:01:20;37.37;;;13.10;;
67090;SDS011;54007;55.818;49.058;2023-01-23T15:04:01;41.60;;;13.75;;
67090;SDS011;54007;55.818;49.058;2023-01-23T15:06:24;46.25;;;16.75;;
67090;SDS011;54007;55.818;49.058;2023-01-23T15:08:50;46.33;;;17.48;;
67090;SDS011;54007;55.818;49.058;2023-01-23T15:11:16;46.50;;;17.60;;
67090;SDS011;54007;55.818;49.058;2023-01-23T15:13:43;53.38;;;18.77;;
67090;SDS011;54007;55.818;49.058;2023-01-23T15:16:30;61.23;;;20.43;;
67090;SDS011;54007;55.818;49.058;2023-01-23T15:18:34;62.33;;;20.50;;
67090;SDS011;54007;55.818;49.058;2023-01-23T15:21:03;64.95;;;20.72;;
67090;SDS011;54007;55.818;49.058;2023-01-23T15:23:29;51.80;;;19.50;;
67090;SDS011;54007;55.818;49.058;2023-01-23T15:26:40;44.30;;;16.65;;
67090;SDS011;54007;55.818;49.058;2023-01-23T15:28:30;40.92;;;15.65;;
67090;SDS011;54007;55.818;49.058;2023-01-23T15:30:55;44.20;;;15.87;;
67090;SDS011;54007;55.818;49.058;2023-01-23T15:33:22;47.88;;;16.42;;
67090;SDS011;54007;55.818;49.058;2023-01-23T15:35:47;49.63;;;16.02;;
67090;SDS011;54007;55.818;49.058;2023-01-23T15:38:16;52.93;;;17.07;;
67090;SDS011;54007;55.818;49.058;2023-01-23T15:40:42;48.52;;;16.85;;
67090;SDS011;54007;55.818;49.058;2023-01-23T15:43:16;48.68;;;17.52;;
67090;SDS011;54007;55.818;49.058;2023-01-23T15:45:36;50.07;;;18.37;;
67090;SDS011;54007;55.818;49.058;2023-01-23T15:48:02;59.90;;;18.35;;
67090;SDS011;54007;55.818;49.058;2023-01-23T15:50:28;65.60;;;19.52;;
67090;SDS011;54007;55.818;49.058;2023-01-23T15:52:54;57.37;;;19.57;;
67090;SDS011;54007;55.818;49.058;2023-01-23T15:55:21;69.05;;;22.13;;
67090;SDS011;54007;55.818;49.058;2023-01-23T15:57:45;60.53;;;20.30;;
67090;SDS011;54007;55.818;49.058;2023-01-23T16:00:15;65.22;;;20.30;;
67090;SDS011;54007;55.818;49.058;2023-01-23T16:02:40;67.97;;;21.30;;
67090;SDS011;54007;55.818;49.058;2023-01-23T16:05:06;63.23;;;22.13;;
67090;SDS011;54007;55.818;49.058;2023-01-23T16:07:39;56.83;;;21.82;;
67090;SDS011;54007;55.818;49.058;2023-01-23T16:10:10;63.33;;;20.92;;
67090;SDS011;54007;55.818;49.058;2023-01-23T16:12:30;55.50;;;18.80;;
67090;SDS011;54007;55.818;49.058;2023-01-23T16:14:56;49.33;;;16.30;;
67090;SDS011;54007;55.818;49.058;2023-01-23T16:17:22;43.10;;;15.08;;
67090;SDS011;54007;55.818;49.058;2023-01-23T16:19:47;43.70;;;14.97;;
67090;SDS011;54007;55.818;49.058;2023-01-23T16:22:15;40.63;;;15.23;;
67090;SDS011;54007;55.818;49.058;2023-01-23T16:24:39;43.10;;;14.98;;
67090;SDS011;54007;55.818;49.058;2023-01-23T16:27:08;37.67;;;14.07;;
67090;SDS011;54007;55.818;49.058;2023-01-23T16:29:32;39.35;;;14.20;;
67090;SDS011;54007;55.818;49.058;2023-01-23T16:31:57;44.53;;;14.93;;
67090;SDS011;54007;55.818;49.058;2023-01-23T16:34:23;42.60;;;15.63;;
67090;SDS011;54007;55.818;49.058;2023-01-23T16:36:50;48.38;;;15.35;;
67090;SDS011;54007;55.818;49.058;2023-01-23T16:39:19;47.40;;;16.27;;
67090;SDS011;54007;55.818;49.058;2023-01-23T16:41:44;44.27;;;17.02;;
67090;SDS011;54007;55.818;49.058;2023-01-23T16:44:13;46.73;;;17.52;;
67090;SDS011;54007;55.818;49.058;2023-01-23T16:46:38;62.30;;;22.33;;
67090;SDS011;54007;55.818;49.058;2023-01-23T16:49:04;46.83;;;16.67;;
67090;SDS011;54007;55.818;49.058;2023-01-23T16:51:30;47.03;;;16.23;;
67090;SDS011;54007;55.818;49.058;2023-01-23T16:53:56;43.27;;;16.33;;
67090;SDS011;54007;55.818;49.058;2023-01-23T16:56:23;42.67;;;15.83;;
67090;SDS011;54007;55.818;49.058;2023-01-23T16:58:48;42.10;;;16.40;;
67090;SDS011;54007;55.818;49.058;2023-01-23T17:01:15;45.63;;;16.80;;
67090;SDS011;54007;55.818;49.058;2023-01-23T17:03:39;45.43;;;16.67;;
67090;SDS011;54007;55.818;49.058;2023-01-23T17:06:10;44.00;;;15.80;;
67090;SDS011;54007;55.818;49.058;2023-01-23T17:08:31;41.40;;;14.15;;
67090;SDS011;54007;55.818;49.058;2023-01-23T17:10:58;42.37;;;15.07;;
67090;SDS011;54007;55.818;49.058;2023-01-23T17:13:23;44.70;;;15.55;;
67090;SDS011;54007;55.818;49.058;2023-01-23T17:15:49;44.95;;;16.10;;
67090;SDS011;54007;55.818;49.058;2023-01-23T17:18:22;47.30;;;16.70;;
67090;SDS011;54007;55.818;49.058;2023-01-23T17:20:46;47.75;;;17.10;;
67090;SDS011;54007;55.818;49.058;2023-01-23T17:23:13;46.20;;;16.40;;
67090;SDS011;54007;55.818;49.058;2023-01-23T17:25:44;39.87;;;16.57;;
67090;SDS011;54007;55.818;49.058;2023-01-23T17:28:13;43.40;;;15.45;;
67090;SDS011;54007;55.818;49.058;2023-01-23T17:30:38;44.35;;;15.45;;
67090;SDS011;54007;55.818;49.058;2023-01-23T17:33:04;46.53;;;16.40;;
67090;SDS011;54007;55.818;49.058;2023-01-23T17:35:33;50.75;;;16.87;;
67090;SDS011;54007;55.818;49.058;2023-01-23T17:37:56;45.37;;;15.80;;
67090;SDS011;54007;55.818;49.058;2023-01-23T17:40:22;44.77;;;16.80;;
67090;SDS011;54007;55.818;49.058;2023-01-23T17:42:48;48.90;;;19.27;;
67090;SDS011;54007;55.818;49.058;2023-01-23T17:45:14;40.63;;;15.67;;
67090;SDS011;54007;55.818;49.058;2023-01-23T17:47:43;46.90;;;17.25;;
67090;SDS011;54007;55.818;49.058;2023-01-23T17:50:14;45.43;;;17.92;;
67090;SDS011;54007;55.818;49.058;2023-01-23T17:52:34;53.57;;;19.20;;
67090;SDS011;54007;55.818;49.058;2023-01-23T17:55:00;54.88;;;19.42;;
67090;SDS011;54007;55.818;49.058;2023-01-23T17:57:26;46.93;;;18.00;;
67090;SDS011;54007;55.818;49.058;2023-01-23T17:59:52;45.33;;;17.65;;
67090;SDS011;54007;55.818;49.058;2023-01-23T18:02:22;47.50;;;18.05;;
67090;SDS011;54007;55.818;49.058;2023-01-23T18:04:46;46.43;;;17.87;;
67090;SDS011;54007;55.818;49.058;2023-01-23T18:07:12;48.17;;;17.82;;
67090;SDS011;54007;55.818;49.058;2023-01-23T18:09:38;50.48;;;17.48;;
67090;SDS011;54007;55.818;49.058;2023-01-23T18:12:04;54.90;;;19.27;;
67090;SDS011;54007;55.818;49.058;2023-01-23T18:16:56;53.73;;;18.62;;
67090;SDS011;54007;55.818;49.058;2023-01-23T18:19:22;46.95;;;18.70;;
67090;SDS011;54007;55.818;49.058;2023-01-23T18:21:48;50.15;;;17.37;;
67090;SDS011;54007;55.818;49.058;2023-01-23T18:24:21;48.20;;;16.93;;
67090;SDS011;54007;55.818;49.058;2023-01-23T18:26:44;43.28;;;16.37;;
67090;SDS011;54007;55.818;49.058;2023-01-23T18:34:29;49.33;;;16.27;;
67090;SDS011;54007;55.818;49.058;2023-01-23T18:44:39;49.63;;;17.23;;
67090;SDS011;54007;55.818;49.058;2023-01-23T18:47:07;48.93;;;16.80;;
67090;SDS011;54007;55.818;49.058;2023-01-23T18:49:30;44.60;;;16.48;;
67090;SDS011;54007;55.818;49.058;2023-01-23T18:54:41;49.73;;;18.10;;
67090;SDS011;54007;55.818;49.058;2023-01-23T18:57:09;40.48;;;13.80;;
67090;SDS011;54007;55.818;49.058;2023-01-23T18:59:39;38.80;;;13.58;;
67090;SDS011;54007;55.818;49.058;2023-01-23T19:02:12;33.70;;;13.40;;
67090;SDS011;54007;55.818;49.058;2023-01-23T19:04:36;36.40;;;12.78;;
